This is the latest recevied weather packets stored in our database for station/object N4OGP-WX. If no packets are shown the sender has not sent any weather packets the latest 10 day(s).
| Time | Temp. | Humidity | Pressure | Rain* | Wind** | Luminosity | Snow |
|---|---|---|---|---|---|---|---|
| 1777416198 | 23.89° C | 42% | 1020.4 hPa | 0 mm | - | - | - |
| 1777416108 | 23.89° C | 42% | 1020.4 hPa | 0 mm | - | - | - |
| 1777416048 | 23.89° C | 42% | 1020.4 hPa | 0 mm | - | - | - |
| 1777415988 | 25° C | 84% | 1014.6 hPa | 0 mm | - | - | - |
| 1777415898 | 25° C | 84% | 1014.6 hPa | 0 mm | - | - | - |
| 1777415838 | 23.89° C | 42% | 1020.4 hPa | 0 mm | - | - | - |
| 1777415748 | 25° C | 84% | 1014.7 hPa | 0 mm | - | - | - |
| 1777415688 | 23.89° C | 42% | 1020.4 hPa | 0 mm | - | - | - |
| 1777415628 | 23.89° C | 42% | 1020.4 hPa | 0 mm | - | - | - |
| 1777415538 | 23.89° C | 42% | 1020.4 hPa | 0 mm | - | - | - |
| 1777415448 | 25° C | 85% | 1014.7 hPa | 0 mm | - | - | - |
| 1777415358 | 23.89° C | 42% | 1020.4 hPa | 0 mm | - | - | - |
| 1777415298 | 25° C | 85% | 1014.7 hPa | 0 mm | - | - | - |
| 1777415238 | 25° C | 84% | 1014.7 hPa | 0 mm | - | - | - |
| 1777415178 | 23.89° C | 42% | 1020.4 hPa | 0 mm | - | - | - |
| 1777415088 | 23.89° C | 42% | 1020.4 hPa | 0 mm | - | - | - |
| 1777414998 | 23.89° C | 42% | 1020.4 hPa | 0 mm | - | - | - |
| 1777414908 | 23.89° C | 42% | 1020.4 hPa | 0 mm | - | - | - |
| 1777414848 | 23.89° C | 42% | 1020.4 hPa | 0 mm | - | - | - |
| 1777414758 | 23.89° C | 42% | 1020.4 hPa | 0 mm | - | - | - |
| 1777414698 | 23.89° C | 42% | 1020.4 hPa | 0 mm | - | - | - |
| 1777414608 | 25.56° C | 82% | 1014.8 hPa | 0 mm | - | - | - |
| 1777414548 | 25.56° C | 83% | 1014.8 hPa | 0 mm | - | - | - |
| 1777414488 | 23.89° C | 42% | 1020.4 hPa | 0 mm | - | - | - |
| 1777414428 | 23.89° C | 42% | 1020.4 hPa | 0 mm | - | - | - |
* Rain latest hour (hover to see other rain measurements)
** Current wind speed in m/s (hover to see current wind gust speed)